createdAt,value
2022-12-18T00:01:36.156Z,-6.05
2022-12-18T00:04:05.624Z,-5.99
2022-12-18T00:06:33.905Z,-5.94
2022-12-18T00:09:01.893Z,-5.89
2022-12-18T00:11:30.975Z,-5.85
2022-12-18T00:13:59.228Z,-5.83
2022-12-18T00:16:27.490Z,-5.83
2022-12-18T00:18:56.250Z,-5.87
2022-12-18T00:21:23.464Z,-5.86
2022-12-18T00:23:51.453Z,-5.88
2022-12-18T00:26:20.961Z,-5.85
2022-12-18T00:28:50.044Z,-5.80
2022-12-18T00:31:19.801Z,-5.78
2022-12-18T00:33:46.988Z,-5.72
2022-12-18T00:36:18.883Z,-5.70
2022-12-18T00:38:46.596Z,-5.66
2022-12-18T00:41:35.148Z,-5.63
2022-12-18T00:44:02.874Z,-5.60
2022-12-18T00:46:29.850Z,-5.58
2022-12-18T00:48:56.809Z,-5.57
2022-12-18T00:51:24.122Z,-5.58
2022-12-18T00:53:51.224Z,-5.55
2022-12-18T00:56:18.148Z,-5.57
2022-12-18T00:58:45.554Z,-5.61
2022-12-18T01:01:12.584Z,-5.68
2022-12-18T01:03:39.876Z,-5.78
2022-12-18T01:06:09.663Z,-5.88
2022-12-18T01:08:36.934Z,-5.97
2022-12-18T01:11:12.804Z,-6.04
2022-12-18T01:13:41.970Z,-6.12
2022-12-18T01:16:10.095Z,-6.20
2022-12-18T01:18:37.139Z,-6.32
2022-12-18T01:21:12.578Z,-6.38
2022-12-18T01:23:40.082Z,-6.38
2022-12-18T01:26:09.175Z,-6.35
2022-12-18T01:28:36.904Z,-6.27
2022-12-18T01:31:25.213Z,-6.23
2022-12-18T01:33:53.034Z,-6.21
2022-12-18T01:36:23.165Z,-6.25
2022-12-18T01:38:50.286Z,-6.30
2022-12-18T01:41:19.746Z,-6.32
2022-12-18T01:43:49.967Z,-6.33
2022-12-18T01:46:18.566Z,-6.36
2022-12-18T01:48:48.187Z,-6.37
2022-12-18T01:51:15.499Z,-6.41
2022-12-18T01:53:43.265Z,-6.50
2022-12-18T01:56:15.386Z,-6.55
2022-12-18T01:59:07.292Z,-6.63
2022-12-18T02:01:34.295Z,-6.67
2022-12-18T02:04:26.381Z,-6.74
2022-12-18T02:07:18.386Z,-6.80
2022-12-18T02:09:45.296Z,-6.81
2022-12-18T02:12:20.893Z,-6.84
2022-12-18T02:14:55.879Z,-6.87
2022-12-18T02:17:26.053Z,-6.90
2022-12-18T02:20:06.921Z,-6.95
2022-12-18T02:22:41.933Z,-6.98
2022-12-18T02:25:19.945Z,-7.00
2022-12-18T02:27:48.183Z,-7.07
2022-12-18T02:30:15.876Z,-7.09
2022-12-18T02:32:46.262Z,-7.08
2022-12-18T02:35:20.596Z,-7.06
2022-12-18T02:37:51.165Z,-7.06
2022-12-18T02:40:18.661Z,-7.09
2022-12-18T02:42:45.822Z,-7.09
2022-12-18T02:45:16.621Z,-7.10
2022-12-18T02:47:46.761Z,-7.11
2022-12-18T02:50:32.102Z,-7.11
2022-12-18T02:53:15.413Z,-7.11
2022-12-18T02:55:54.311Z,-7.08
2022-12-18T02:58:35.694Z,-7.09
2022-12-18T03:01:15.290Z,-7.08
2022-12-18T03:04:07.413Z,-7.10
2022-12-18T03:06:40.993Z,-7.11
2022-12-18T03:09:11.415Z,-7.16
2022-12-18T03:12:00.050Z,-7.19
2022-12-18T03:14:28.318Z,-7.22
2022-12-18T03:17:00.057Z,-7.26
2022-12-18T03:19:29.132Z,-7.26
2022-12-18T03:22:00.013Z,-7.24
2022-12-18T03:24:29.414Z,-7.21
2022-12-18T03:27:01.326Z,-7.16
2022-12-18T03:29:34.363Z,-7.16
2022-12-18T03:32:09.381Z,-7.11
2022-12-18T03:34:40.359Z,-7.10
2022-12-18T03:37:08.845Z,-7.08
2022-12-18T03:39:37.794Z,-7.06
2022-12-18T03:42:27.174Z,-7.04
2022-12-18T03:45:25.782Z,-7.00
2022-12-18T03:48:11.282Z,-6.96
2022-12-18T03:51:08.266Z,-6.96
2022-12-18T03:53:48.844Z,-6.92
2022-12-18T03:56:17.689Z,-6.89
2022-12-18T03:58:45.222Z,-6.85
2022-12-18T04:01:29.783Z,-6.85
2022-12-18T04:03:58.207Z,-6.84
2022-12-18T04:06:25.166Z,-6.85
2022-12-18T04:08:52.774Z,-6.84
2022-12-18T04:11:22.654Z,-6.87
2022-12-18T04:13:49.703Z,-6.90
2022-12-18T04:16:22.995Z,-6.93
2022-12-18T04:18:54.044Z,-6.93
2022-12-18T04:21:23.709Z,-6.94
2022-12-18T04:23:50.964Z,-7.00
2022-12-18T04:26:21.313Z,-7.03
2022-12-18T04:29:06.825Z,-7.07
2022-12-18T04:31:34.404Z,-7.09
2022-12-18T04:34:03.185Z,-7.15
2022-12-18T04:36:36.122Z,-7.18
2022-12-18T04:39:03.125Z,-7.19
2022-12-18T04:41:31.499Z,-7.20
2022-12-18T04:43:58.828Z,-7.22
2022-12-18T04:46:26.042Z,-7.24
2022-12-18T04:48:53.099Z,-7.26
2022-12-18T04:51:26.162Z,-7.28
2022-12-18T04:53:54.243Z,-7.31
2022-12-18T04:56:21.395Z,-7.30
2022-12-18T04:58:48.458Z,-7.33
2022-12-18T05:01:17.079Z,-7.37
2022-12-18T05:03:44.662Z,-7.40
2022-12-18T05:06:12.476Z,-7.41
2022-12-18T05:08:39.599Z,-7.41
2022-12-18T05:11:09.541Z,-7.42
2022-12-18T05:13:39.403Z,-7.43
2022-12-18T05:16:07.482Z,-7.45
2022-12-18T05:18:35.041Z,-7.47
2022-12-18T05:21:02.209Z,-7.48
2022-12-18T05:23:29.508Z,-7.51
2022-12-18T05:25:59.139Z,-7.52
2022-12-18T05:28:27.959Z,-7.52
2022-12-18T05:30:59.485Z,-7.51
2022-12-18T05:33:28.303Z,-7.51
2022-12-18T05:35:57.002Z,-7.52
2022-12-18T05:38:25.114Z,-7.53
2022-12-18T05:40:53.120Z,-7.55
2022-12-18T05:43:22.661Z,-7.57
2022-12-18T05:45:50.507Z,-7.60
2022-12-18T05:48:18.153Z,-7.61
2022-12-18T05:50:47.058Z,-7.62
2022-12-18T05:53:16.258Z,-7.62
2022-12-18T05:55:44.517Z,-7.62
2022-12-18T05:58:12.900Z,-7.61
2022-12-18T06:00:42.905Z,-7.64
2022-12-18T06:03:11.487Z,-7.66
2022-12-18T06:05:43.943Z,-7.70
2022-12-18T06:08:12.159Z,-7.70
2022-12-18T06:10:39.147Z,-7.71
2022-12-18T06:13:06.783Z,-7.71
2022-12-18T06:15:34.280Z,-7.71
2022-12-18T06:18:01.989Z,-7.71
2022-12-18T06:20:33.695Z,-7.71
2022-12-18T06:23:01.224Z,-7.71
2022-12-18T06:25:28.289Z,-7.70
2022-12-18T06:27:55.378Z,-7.66
2022-12-18T06:30:22.616Z,-7.68
2022-12-18T06:32:53.148Z,-7.68
2022-12-18T06:35:23.875Z,-7.69
2022-12-18T06:37:51.071Z,-7.70
2022-12-18T06:40:18.243Z,-7.72
2022-12-18T06:42:45.181Z,-7.73
2022-12-18T06:45:12.661Z,-7.76
2022-12-18T06:47:39.650Z,-7.76
2022-12-18T06:50:07.201Z,-7.77
2022-12-18T06:52:34.731Z,-7.82
2022-12-18T06:55:01.826Z,-7.85
2022-12-18T06:57:29.006Z,-7.88
2022-12-18T06:59:55.977Z,-7.90
2022-12-18T07:02:23.242Z,-7.89
2022-12-18T07:04:51.955Z,-7.88
2022-12-18T07:07:19.199Z,-7.85
2022-12-18T07:09:46.263Z,-7.87
2022-12-18T07:12:13.564Z,-7.88
2022-12-18T07:14:40.886Z,-7.85
2022-12-18T07:17:08.308Z,-7.88
2022-12-18T07:19:35.552Z,-7.88
2022-12-18T07:22:03.228Z,-7.89
2022-12-18T07:24:32.151Z,-7.90
2022-12-18T07:26:59.698Z,-7.88
2022-12-18T07:29:27.053Z,-7.85
2022-12-18T07:31:54.287Z,-7.81
2022-12-18T07:34:21.634Z,-7.75
2022-12-18T07:36:48.657Z,-7.72
2022-12-18T07:39:15.830Z,-7.65
2022-12-18T07:42:05.528Z,-7.58
2022-12-18T07:44:33.581Z,-7.54
2022-12-18T07:47:00.791Z,-7.50
2022-12-18T07:49:27.800Z,-7.45
2022-12-18T07:51:57.325Z,-7.36
2022-12-18T07:54:25.409Z,-7.27
2022-12-18T07:56:53.618Z,-7.18
2022-12-18T07:59:20.605Z,-7.09
2022-12-18T08:01:47.734Z,-7.06
2022-12-18T08:04:14.878Z,-7.00
2022-12-18T08:06:46.237Z,-6.95
2022-12-18T08:09:15.297Z,-6.89
2022-12-18T08:11:42.426Z,-6.82
2022-12-18T08:14:09.607Z,-6.79
2022-12-18T08:16:37.547Z,-6.74
2022-12-18T08:19:04.737Z,-6.67
2022-12-18T08:21:32.889Z,-6.63
2022-12-18T08:24:01.344Z,-6.57
2022-12-18T08:26:30.957Z,-6.48
2022-12-18T08:28:59.775Z,-6.40
2022-12-18T08:31:28.408Z,-6.30
2022-12-18T08:33:55.773Z,-6.18
2022-12-18T08:36:25.015Z,-6.12
2022-12-18T08:38:53.666Z,-6.04
2022-12-18T08:41:21.698Z,-5.98
2022-12-18T08:44:09.007Z,-5.91
2022-12-18T08:46:41.372Z,-5.84
2022-12-18T08:49:09.085Z,-5.76
2022-12-18T08:51:37.083Z,-5.68
2022-12-18T08:54:05.164Z,-5.61
2022-12-18T08:56:34.330Z,-5.57
2022-12-18T08:59:01.404Z,-5.49
2022-12-18T09:01:29.018Z,-5.43
2022-12-18T09:03:56.080Z,-5.35
2022-12-18T09:06:23.974Z,-5.28
2022-12-18T09:08:51.083Z,-5.24
2022-12-18T09:11:28.534Z,-5.19
2022-12-18T09:13:56.825Z,-5.14
2022-12-18T09:16:30.301Z,-5.12
2022-12-18T09:19:03.223Z,-5.06
2022-12-18T09:21:35.019Z,-4.93
2022-12-18T09:24:04.578Z,-4.85
2022-12-18T09:26:34.997Z,-4.78
2022-12-18T09:29:01.878Z,-4.73
2022-12-18T09:31:28.805Z,-4.69
2022-12-18T09:33:57.629Z,-4.66
2022-12-18T09:36:24.612Z,-4.61
2022-12-18T09:38:52.129Z,-4.57
2022-12-18T09:41:37.019Z,-4.50
2022-12-18T09:44:11.154Z,-4.50
2022-12-18T09:46:44.357Z,-4.46
2022-12-18T09:49:16.015Z,-4.43
2022-12-18T09:51:50.726Z,-4.39
2022-12-18T09:54:39.023Z,-4.35
2022-12-18T09:57:06.402Z,-4.29
2022-12-18T09:59:36.960Z,-4.26
2022-12-18T10:02:24.360Z,-4.22
2022-12-18T10:05:13.676Z,-4.22
2022-12-18T10:08:11.630Z,-4.18
2022-12-18T10:10:48.457Z,-4.18
2022-12-18T10:13:43.032Z,-4.15
2022-12-18T10:16:14.849Z,-4.08
2022-12-18T10:19:03.832Z,-4.06
2022-12-18T10:21:45.708Z,-4.01
2022-12-18T10:24:46.350Z,-3.98
2022-12-18T10:27:18.709Z,-3.98
2022-12-18T10:29:47.024Z,-3.91
2022-12-18T10:32:25.969Z,-3.86
2022-12-18T10:35:00.094Z,-3.84
2022-12-18T10:37:29.925Z,-3.79
2022-12-18T10:40:29.479Z,-3.73
2022-12-18T10:43:15.629Z,-3.67
2022-12-18T10:45:43.517Z,-3.65
2022-12-18T10:48:23.056Z,-3.62
2022-12-18T10:53:41.541Z,-3.55
2022-12-18T10:56:08.666Z,-3.52
2022-12-18T10:58:38.088Z,-3.51
2022-12-18T11:01:12.323Z,-3.51
2022-12-18T11:03:41.161Z,-3.47
2022-12-18T11:06:13.731Z,-3.38
2022-12-18T11:08:43.104Z,-3.38
2022-12-18T11:11:24.200Z,-3.30
2022-12-18T11:14:28.503Z,-3.24
2022-12-18T11:19:43.584Z,-3.11
2022-12-18T11:22:29.994Z,-3.08
2022-12-18T11:25:32.689Z,-3.04
2022-12-18T11:27:55.824Z,-3.01
2022-12-18T11:30:26.798Z,-2.95
2022-12-18T11:32:59.839Z,-2.91
2022-12-18T11:35:45.351Z,-2.86
2022-12-18T11:38:25.233Z,-2.79
2022-12-18T11:41:13.899Z,-2.74
2022-12-18T11:43:48.840Z,-2.69
2022-12-18T11:46:20.391Z,-2.70
2022-12-18T11:49:00.085Z,-2.64
2022-12-18T11:51:37.249Z,-2.58
2022-12-18T11:54:14.131Z,-2.48
2022-12-18T11:56:47.724Z,-2.44
2022-12-18T11:59:33.791Z,-2.37
2022-12-18T12:02:19.083Z,-2.34
2022-12-18T12:05:10.294Z,-2.33
2022-12-18T12:08:01.547Z,-2.27
2022-12-18T12:10:52.908Z,-2.23
2022-12-18T12:13:29.503Z,-2.22
2022-12-18T12:16:12.518Z,-2.21
2022-12-18T12:19:02.467Z,-2.22
2022-12-18T12:21:48.179Z,-2.22
2022-12-18T12:24:30.631Z,-2.23
2022-12-18T12:27:06.725Z,-2.26
2022-12-18T12:29:53.094Z,-2.31
2022-12-18T12:32:35.198Z,-2.31
2022-12-18T12:35:39.915Z,-2.31
2022-12-18T12:38:12.140Z,-2.36
2022-12-18T12:41:02.124Z,-2.40
2022-12-18T12:43:50.638Z,-2.43
2022-12-18T12:46:22.151Z,-2.50
2022-12-18T12:49:05.097Z,-2.51
2022-12-18T12:51:41.255Z,-2.49
2022-12-18T12:54:22.428Z,-2.49
2022-12-18T12:56:57.607Z,-2.50
2022-12-18T12:59:43.000Z,-2.51
2022-12-18T13:02:22.278Z,-2.54
2022-12-18T13:05:08.137Z,-2.56
2022-12-18T13:08:07.031Z,-2.57
2022-12-18T13:11:15.048Z,-2.56
2022-12-18T13:13:54.950Z,-2.57
2022-12-18T13:16:25.469Z,-2.65
2022-12-18T13:18:58.969Z,-2.66
2022-12-18T13:21:29.954Z,-2.69
2022-12-18T13:23:58.533Z,-2.74
2022-12-18T13:29:41.498Z,-2.82
2022-12-18T13:32:24.796Z,-2.87
2022-12-18T13:38:36.023Z,-2.96
2022-12-18T13:41:21.965Z,-3.00
2022-12-18T13:43:54.242Z,-3.06
2022-12-18T13:46:44.424Z,-3.11
2022-12-18T13:49:14.890Z,-3.13
2022-12-18T13:51:53.290Z,-3.18
2022-12-18T13:54:29.478Z,-3.23
2022-12-18T13:56:56.771Z,-3.29
2022-12-18T13:59:37.198Z,-3.39
2022-12-18T14:02:17.765Z,-3.40
2022-12-18T14:04:49.256Z,-3.49
2022-12-18T14:07:17.870Z,-3.51
2022-12-18T14:09:52.315Z,-3.57
2022-12-18T14:12:45.605Z,-3.69
2022-12-18T14:15:28.231Z,-3.80
2022-12-18T14:18:01.093Z,-3.88
2022-12-18T14:20:33.310Z,-3.98
2022-12-18T14:23:01.663Z,-4.07
2022-12-18T14:25:31.254Z,-4.22
2022-12-18T14:28:15.134Z,-4.29
2022-12-18T14:30:47.237Z,-4.35
2022-12-18T14:33:19.650Z,-4.36
2022-12-18T14:36:06.406Z,-4.44
2022-12-18T14:38:41.253Z,-4.45
2022-12-18T14:41:13.673Z,-4.55
2022-12-18T14:43:46.806Z,-4.59
2022-12-18T14:46:35.444Z,-4.67
2022-12-18T14:49:21.089Z,-4.76
2022-12-18T14:51:54.892Z,-4.81
2022-12-18T14:54:24.052Z,-4.86
2022-12-18T14:56:56.456Z,-4.91
2022-12-18T14:59:25.313Z,-4.92
2022-12-18T15:02:17.618Z,-4.98
2022-12-18T15:04:45.286Z,-5.00
2022-12-18T15:07:12.244Z,-5.03
2022-12-18T15:09:41.766Z,-5.05
2022-12-18T15:12:30.334Z,-5.11
2022-12-18T15:14:59.156Z,-5.17
2022-12-18T15:17:26.684Z,-5.21
2022-12-18T15:20:03.354Z,-5.29
2022-12-18T15:22:34.215Z,-5.34
2022-12-18T15:25:01.775Z,-5.38
2022-12-18T15:27:36.987Z,-5.44
2022-12-18T15:30:10.144Z,-5.51
2022-12-18T15:32:38.575Z,-5.49
2022-12-18T15:35:17.364Z,-5.54
2022-12-18T15:37:45.283Z,-5.52
2022-12-18T15:40:21.126Z,-5.58
2022-12-18T15:43:07.210Z,-5.55
2022-12-18T15:45:34.269Z,-5.57
2022-12-18T15:48:01.441Z,-5.64
2022-12-18T15:50:28.745Z,-5.67
2022-12-18T15:52:56.584Z,-5.65
2022-12-18T15:55:43.571Z,-5.67
2022-12-18T15:58:12.256Z,-5.68
2022-12-18T16:00:40.849Z,-5.70
2022-12-18T16:03:08.547Z,-5.73
2022-12-18T16:05:35.968Z,-5.78
2022-12-18T16:08:03.248Z,-5.83
2022-12-18T16:10:30.475Z,-5.84
2022-12-18T16:12:57.573Z,-5.88
2022-12-18T16:15:25.162Z,-5.80
2022-12-18T16:17:52.970Z,-5.84
2022-12-18T16:20:23.730Z,-5.84
2022-12-18T16:22:51.139Z,-5.83
2022-12-18T16:25:23.454Z,-5.88
2022-12-18T16:27:50.931Z,-5.91
2022-12-18T16:30:25.152Z,-5.97
2022-12-18T16:32:53.504Z,-5.97
2022-12-18T16:35:20.683Z,-6.00
2022-12-18T16:37:47.826Z,-6.07
2022-12-18T16:40:16.930Z,-6.08
2022-12-18T16:42:45.765Z,-6.15
2022-12-18T16:45:15.976Z,-6.18
2022-12-18T16:47:43.183Z,-6.22
2022-12-18T16:50:11.030Z,-6.26
2022-12-18T16:52:38.668Z,-6.33
2022-12-18T16:55:06.382Z,-6.34
2022-12-18T16:57:33.753Z,-6.38
2022-12-18T17:00:05.026Z,-6.45
2022-12-18T17:02:33.331Z,-6.46
2022-12-18T17:05:02.685Z,-6.50
2022-12-18T17:07:29.912Z,-6.52
2022-12-18T17:09:57.656Z,-6.54
2022-12-18T17:12:25.275Z,-6.60
2022-12-18T17:14:52.441Z,-6.66
2022-12-18T17:17:21.848Z,-6.68
2022-12-18T17:19:50.610Z,-6.70
2022-12-18T17:22:17.648Z,-6.75
2022-12-18T17:24:44.684Z,-6.78
2022-12-18T17:27:11.888Z,-6.83
2022-12-18T17:29:43.928Z,-6.85
2022-12-18T17:32:13.758Z,-6.91
2022-12-18T17:34:41.069Z,-6.95
2022-12-18T17:37:08.498Z,-6.99
2022-12-18T17:39:35.793Z,-6.98
2022-12-18T17:42:02.816Z,-6.99
2022-12-18T17:44:30.000Z,-7.00
2022-12-18T17:47:01.167Z,-7.02
2022-12-18T17:49:29.624Z,-7.06
2022-12-18T17:51:56.662Z,-7.09
2022-12-18T17:54:23.714Z,-7.08
2022-12-18T17:56:50.759Z,-7.09
2022-12-18T17:59:17.891Z,-7.12
2022-12-18T18:02:03.569Z,-7.15
2022-12-18T18:04:37.847Z,-7.17
2022-12-18T18:07:05.094Z,-7.20
2022-12-18T18:09:32.528Z,-7.20
2022-12-18T18:12:18.256Z,-7.07
2022-12-18T18:14:45.522Z,-7.13
2022-12-18T18:17:12.942Z,-7.22
2022-12-18T18:19:40.106Z,-7.28
2022-12-18T18:22:07.605Z,-7.36
2022-12-18T18:24:35.158Z,-7.42
2022-12-18T18:27:02.255Z,-7.47
2022-12-18T18:29:32.946Z,-7.55
2022-12-18T18:32:00.344Z,-7.56
2022-12-18T18:34:30.300Z,-7.62
2022-12-18T18:36:57.453Z,-7.70
2022-12-18T18:39:24.952Z,-7.73
2022-12-18T18:41:52.325Z,-7.79
2022-12-18T18:44:25.918Z,-7.82
2022-12-18T18:46:55.391Z,-7.83
2022-12-18T18:49:28.296Z,-7.87
2022-12-18T18:51:56.858Z,-7.86
2022-12-18T18:54:24.976Z,-7.92
2022-12-18T18:59:39.238Z,-7.95
2022-12-18T19:02:06.680Z,-7.93
2022-12-18T19:04:34.392Z,-7.98
2022-12-18T19:07:01.611Z,-8.00
2022-12-18T19:09:28.937Z,-8.01
2022-12-18T19:12:14.727Z,-8.06
2022-12-18T19:14:42.201Z,-8.01
2022-12-18T19:17:10.420Z,-8.01
2022-12-18T19:19:37.510Z,-8.02
2022-12-18T19:22:09.927Z,-8.02
2022-12-18T19:24:37.476Z,-8.00
2022-12-18T19:27:05.478Z,-7.93
2022-12-18T19:29:32.637Z,-7.96
2022-12-18T19:32:00.897Z,-7.96
2022-12-18T19:34:29.237Z,-7.91
2022-12-18T19:36:59.928Z,-7.89
2022-12-18T19:39:30.926Z,-7.87
2022-12-18T19:42:00.106Z,-7.87
2022-12-18T19:44:30.851Z,-7.87
2022-12-18T19:47:03.646Z,-7.84
2022-12-18T19:49:36.424Z,-7.75
2022-12-18T19:52:03.370Z,-7.76
2022-12-18T19:58:10.521Z,-7.80
2022-12-18T20:00:39.451Z,-7.87
2022-12-18T20:03:25.259Z,-7.90
2022-12-18T20:06:08.305Z,-7.91
2022-12-18T20:08:36.545Z,-7.97
2022-12-18T20:11:06.409Z,-7.96
2022-12-18T20:13:36.609Z,-7.97
2022-12-18T20:16:07.646Z,-8.02
2022-12-18T20:18:40.179Z,-8.03
2022-12-18T20:21:13.677Z,-8.03
2022-12-18T20:23:44.902Z,-8.05
2022-12-18T20:26:15.767Z,-8.08
2022-12-18T20:28:43.800Z,-8.08
2022-12-18T20:31:13.751Z,-8.09
2022-12-18T20:33:42.912Z,-8.09
2022-12-18T20:36:15.725Z,-8.11
2022-12-18T20:38:44.299Z,-8.14
2022-12-18T20:41:17.736Z,-8.14
2022-12-18T20:43:46.043Z,-8.15
2022-12-18T20:46:17.028Z,-8.17
2022-12-18T20:48:45.353Z,-8.18
2022-12-18T20:51:16.868Z,-8.22
2022-12-18T20:53:44.802Z,-8.22
2022-12-18T20:56:20.161Z,-8.22
2022-12-18T20:58:49.999Z,-8.22
2022-12-18T21:01:19.971Z,-8.22
2022-12-18T21:03:47.935Z,-8.25
2022-12-18T21:06:16.834Z,-8.25
2022-12-18T21:08:44.451Z,-8.28
2022-12-18T21:11:50.276Z,-8.28
2022-12-18T21:14:21.534Z,-8.29
2022-12-18T21:16:49.541Z,-8.30
2022-12-18T21:19:23.734Z,-8.32
2022-12-18T21:21:52.098Z,-8.36
2022-12-18T21:24:20.003Z,-8.42
2022-12-18T21:26:48.022Z,-8.42
2022-12-18T21:29:33.465Z,-8.42
2022-12-18T21:32:00.862Z,-8.43
2022-12-18T21:34:30.276Z,-8.43
2022-12-18T21:36:58.969Z,-8.42
2022-12-18T21:39:26.975Z,-8.42
2022-12-18T21:42:12.512Z,-8.44
2022-12-18T21:44:41.446Z,-8.40
2022-12-18T21:47:22.747Z,-8.40
2022-12-18T21:49:54.017Z,-8.37
2022-12-18T21:52:31.512Z,-8.34
2022-12-18T21:55:07.871Z,-8.32
2022-12-18T21:57:37.250Z,-8.35
2022-12-18T22:00:06.567Z,-8.33
2022-12-18T22:02:39.333Z,-8.32
2022-12-18T22:05:07.252Z,-8.31
2022-12-18T22:07:34.489Z,-8.32
2022-12-18T22:10:01.980Z,-8.35
2022-12-18T22:12:39.775Z,-8.36
2022-12-18T22:15:10.967Z,-8.28
2022-12-18T22:17:39.464Z,-8.29
2022-12-18T22:20:08.084Z,-8.28
2022-12-18T22:22:35.507Z,-8.26
2022-12-18T22:25:02.571Z,-8.26
2022-12-18T22:27:29.696Z,-8.28
2022-12-18T22:30:08.759Z,-8.24
2022-12-18T22:32:36.372Z,-8.21
2022-12-18T22:35:10.432Z,-8.23
2022-12-18T22:37:41.304Z,-8.23
2022-12-18T22:40:13.293Z,-8.22
2022-12-18T22:42:41.178Z,-8.19
2022-12-18T22:45:08.739Z,-8.19
2022-12-18T22:47:35.701Z,-8.18
2022-12-18T22:50:02.694Z,-8.17
2022-12-18T22:52:29.692Z,-8.24
2022-12-18T22:54:56.660Z,-8.18
2022-12-18T22:57:23.953Z,-8.19
2022-12-18T22:59:51.626Z,-8.22
2022-12-18T23:02:19.750Z,-8.27
2022-12-18T23:04:47.922Z,-8.27
2022-12-18T23:07:16.002Z,-8.30
2022-12-18T23:09:43.134Z,-8.29
2022-12-18T23:12:19.302Z,-8.25
2022-12-18T23:14:47.454Z,-8.26
2022-12-18T23:17:14.426Z,-8.25
2022-12-18T23:19:47.198Z,-8.28
2022-12-18T23:22:15.995Z,-8.36
2022-12-18T23:24:42.991Z,-8.44
2022-12-18T23:29:40.102Z,-8.49
2022-12-18T23:32:07.210Z,-8.49
2022-12-18T23:34:34.210Z,-8.46
2022-12-18T23:37:01.294Z,-8.45
2022-12-18T23:39:30.088Z,-8.52
2022-12-18T23:41:58.525Z,-8.48
2022-12-18T23:44:25.766Z,-8.49
2022-12-18T23:46:52.873Z,-8.49
2022-12-18T23:49:20.022Z,-8.42
2022-12-18T23:51:46.904Z,-8.41
2022-12-18T23:54:13.864Z,-8.36
2022-12-18T23:56:40.908Z,-8.38
2022-12-18T23:59:07.919Z,-8.35
